Morning Compass — C6ZY8 — position and weather

sailwx.info

Track history (hours):
 
Tides and Currents Weather Stations Pressure Air Temp Water Temp Dewpoint Dewpoint Depression Visibility Wind Speed Wind Dir Waves Ship Positions

Morning Compass

Last reported at 2017-Dec-30 03:02 UTC. Time now 2018-Feb-20 21:44 UTC.
Position N 31°07' E 122°16'.
Warning: this ship's position is 52 days out of date.

Length 200 m; draft 9.6 m.

Type: Cargo ship. MMSI: 311072400.

Date/timePositionNaut miles runAvg speedWind from/ knotsBaromVisibWave heightAir tempDewpointWater temp
2017-Dec-30 03:02N 31°07' E 122°16'114.7
2017-Dec-30 02:57N 31°08' E 122°15'614.3
2017-Dec-30 02:30N 31°12' E 122°09'713.3
2017-Dec-30 02:00N 31°14' E 122°02'612.6
2017-Dec-30 01:30N 31°16' E 121°55'611.9
2017-Dec-30 01:00N 31°17' E 121°48'610.9
2017-Dec-30 00:29N 31°20' E 121°42'1 0.1
2017-Dec-28 23:30N 31°20' E 121°41'5 9.6
2017-Dec-28 23:00N 31°18' E 121°46'611.2
2017-Dec-28 22:27N 31°16' E 121°52'2518.2
2017-Dec-28 21:06N 31°06' E 122°19'0 0.5
2017-Dec-28 20:46N 31°06' E 122°19'1 1.5
2017-Dec-28 20:26N 31°06' E 122°20'6 6.6
2017-Dec-28 19:27N 31°07' E 122°27'  
Track history (hours):
 
Tides and Currents Weather Stations Pressure Air Temp Water Temp Dewpoint Dewpoint Depression Visibility Wind Speed Wind Dir Waves Ship Positions

Morning Compass

Last reported at 2017-Dec-30 03:02 UTC. Time now 2018-Feb-20 21:44 UTC.
Position N 31°07' E 122°16'.
Warning: this ship's position is 52 days out of date.

Length 200 m; draft 9.6 m.

Type: Cargo ship. MMSI: 311072400.

Date/timePositionNaut miles runAvg speedWind from/ knotsBaromVisibWave heightAir tempDewpointWater temp
2017-Dec-30 03:02N 31°07' E 122°16'114.7
2017-Dec-30 02:57N 31°08' E 122°15'614.3
2017-Dec-30 02:30N 31°12' E 122°09'713.3
2017-Dec-30 02:00N 31°14' E 122°02'612.6
2017-Dec-30 01:30N 31°16' E 121°55'611.9
2017-Dec-30 01:00N 31°17' E 121°48'610.9
2017-Dec-30 00:29N 31°20' E 121°42'1 0.1
2017-Dec-28 23:30N 31°20' E 121°41'5 9.6
2017-Dec-28 23:00N 31°18' E 121°46'611.2
2017-Dec-28 22:27N 31°16' E 121°52'2518.2
2017-Dec-28 21:06N 31°06' E 122°19'0 0.5
2017-Dec-28 20:46N 31°06' E 122°19'1 1.5
2017-Dec-28 20:26N 31°06' E 122°20'6 6.6
2017-Dec-28 19:27N 31°07' E 122°27'  

Dump ship's entire track history